Time;durP1;ratioP1;P1;durP2;ratioP2;P2;SDS_P1;SDS_P2;PMS_P1;PMS_P2;Temp;Humidity;BMP_temperature;BMP_pressure;BME280_temperature;BME280_humidity;BME280_pressure;Samples;Min_cycle;Max_cycle;Signal;HPM_P1;HPM_P2
2023/10/16 00:01:54;;;;;;;0.10;0.10;;;8.30;99.90;;;;;;5029664;28;20463;-77
2023/10/16 00:04:21;;;;;;;0.10;0.10;;;8.20;99.90;;;;;;5014372;28;20049;-76
2023/10/16 00:06:49;;;;;;;0.35;0.35;;;8.10;99.90;;;;;;5014242;28;20390;-76
2023/10/16 00:09:21;;;;;;;4.10;2.22;;;7.80;99.90;;;;;;5012987;28;20022;-77
2023/10/16 00:11:47;;;;;;;0.00;0.00;;;8.00;99.90;;;;;;5014063;28;20034;-77
2023/10/16 00:14:23;;;;;;;0.10;0.10;;;7.90;99.90;;;;;;5014195;28;20032;-78
2023/10/16 00:16:50;;;;;;;0.30;0.30;;;8.00;99.90;;;;;;5014095;28;20049;-77
2023/10/16 00:19:16;;;;;;;1.10;1.10;;;8.10;99.90;;;;;;5013865;28;20080;-77
2023/10/16 00:21:46;;;;;;;0.08;0.08;;;8.10;99.90;;;;;;5014744;28;20052;-81
2023/10/16 00:24:12;;;;;;;0.10;0.10;;;8.00;99.90;;;;;;5013895;28;20034;-81
2023/10/16 00:26:45;;;;;;;0.35;0.35;;;8.10;99.90;;;;;;5013733;28;20477;-80
2023/10/16 00:29:22;;;;;;;0.17;0.17;;;8.20;99.90;;;;;;5012859;28;20033;-80
2023/10/16 00:31:52;;;;;;;0.30;0.30;;;8.20;99.90;;;;;;5013744;28;20490;-81
2023/10/16 00:34:20;;;;;;;0.10;0.10;;;8.00;99.90;;;;;;5013568;28;20021;-80
2023/10/16 00:36:47;;;;;;;0.10;0.10;;;7.80;99.90;;;;;;5013698;28;20517;-81
2023/10/16 00:39:14;;;;;;;0.10;0.10;;;7.80;99.90;;;;;;5013718;28;20029;-81
2023/10/16 00:41:40;;;;;;;0.10;0.10;;;7.70;99.90;;;;;;5013450;28;20052;-81
2023/10/16 00:44:06;;;;;;;0.20;0.20;;;7.70;99.90;;;;;;5013316;28;20049;-78
2023/10/16 00:46:36;;;;;;;0.10;0.10;;;7.70;99.90;;;;;;5012573;28;20018;-80
2023/10/16 00:49:07;;;;;;;0.10;0.10;;;7.70;99.90;;;;;;5013384;28;20060;-78
2023/10/16 00:51:35;;;;;;;0.10;0.10;;;7.60;99.90;;;;;;5012469;28;20018;-80
2023/10/16 00:54:03;;;;;;;0.10;0.10;;;7.50;99.90;;;;;;5012830;28;20087;-79
2023/10/16 00:56:30;;;;;;;0.10;0.10;;;7.60;99.90;;;;;;5013578;28;20018;-79
2023/10/16 00:58:56;;;;;;;0.10;0.10;;;7.80;99.90;;;;;;5028287;28;20026;-78
2023/10/16 01:01:25;;;;;;;0.00;0.00;;;7.80;99.90;;;;;;5013342;28;20455;-82
2023/10/16 01:03:56;;;;;;;0.10;0.10;;;7.70;99.90;;;;;;5013338;28;20088;-78
2023/10/16 01:06:31;;;;;;;0.10;0.10;;;7.40;99.90;;;;;;5013137;28;20492;-77
2023/10/16 01:08:58;;;;;;;0.10;0.10;;;7.40;99.90;;;;;;5028053;28;20022;-76
2023/10/16 01:11:26;;;;;;;0.10;0.10;;;7.40;99.90;;;;;;5013106;28;20483;-77
2023/10/16 01:13:54;;;;;;;0.10;0.10;;;7.20;99.90;;;;;;5012911;28;20030;-78
2023/10/16 01:16:20;;;;;;;0.10;0.10;;;7.20;99.90;;;;;;5013221;28;20026;-77
2023/10/16 01:18:46;;;;;;;0.00;0.00;;;7.40;99.90;;;;;;5011950;28;20034;-77
2023/10/16 01:21:15;;;;;;;0.10;0.10;;;7.40;99.90;;;;;;5013040;28;20458;-77
2023/10/16 01:23:44;;;;;;;0.10;0.10;;;7.40;99.90;;;;;;5027954;28;20030;-76
2023/10/16 01:26:15;;;;;;;0.10;0.10;;;7.50;99.90;;;;;;5013038;28;20026;-77
2023/10/16 01:28:41;;;;;;;0.10;0.10;;;7.50;99.90;;;;;;5012888;28;20032;-76
2023/10/16 01:31:07;;;;;;;1.75;1.65;;;7.50;99.90;;;;;;5012760;28;20491;-78
2023/10/16 01:33:33;;;;;;;0.45;0.45;;;7.50;99.90;;;;;;5012857;28;20030;-77
2023/10/16 01:35:59;;;;;;;0.10;0.10;;;7.40;99.90;;;;;;5011927;28;20118;-77
2023/10/16 01:38:26;;;;;;;0.10;0.10;;;7.40;99.90;;;;;;5012569;28;20113;-78
2023/10/16 01:41:09;;;;;;;0.20;0.20;;;7.50;99.90;;;;;;5027836;28;20072;-80
2023/10/16 01:43:39;;;;;;;13.40;2.53;;;7.50;99.90;;;;;;5012841;28;20026;-81
2023/10/16 01:46:09;;;;;;;0.10;0.10;;;7.40;99.90;;;;;;5012725;28;20042;-81
2023/10/16 01:48:42;;;;;;;0.10;0.10;;;7.60;99.90;;;;;;5028070;28;20022;-78
2023/10/16 01:51:11;;;;;;;0.10;0.10;;;7.50;99.90;;;;;;5012675;28;20033;-81
2023/10/16 01:53:40;;;;;;;0.10;0.10;;;7.40;99.90;;;;;;5011353;28;20490;-79
2023/10/16 01:56:13;;;;;;;0.10;0.10;;;7.40;99.90;;;;;;4999132;28;20022;-82
2023/10/16 01:58:46;;;;;;;0.10;0.10;;;7.30;99.90;;;;;;5027910;28;20026;-77
2023/10/16 02:01:14;;;;;;;0.57;0.57;;;7.40;99.90;;;;;;5011251;28;20053;-80
2023/10/16 02:03:44;;;;;;;0.10;0.10;;;7.40;99.90;;;;;;5013449;28;20029;-81
2023/10/16 02:06:20;;;;;;;0.10;0.10;;;7.30;99.90;;;;;;5014729;28;20056;-81
2023/10/16 02:08:47;;;;;;;1.38;1.38;;;7.40;99.90;;;;;;5003375;28;20018;-78
2023/10/16 02:11:16;;;;;;;0.10;0.10;;;7.40;99.90;;;;;;5016227;28;20030;-81
2023/10/16 02:13:43;;;;;;;0.10;0.10;;;7.30;99.90;;;;;;5016263;28;20030;-79
2023/10/16 02:16:12;;;;;;;1.23;1.17;;;7.40;99.90;;;;;;5016283;28;20065;-79
2023/10/16 02:18:42;;;;;;;0.10;0.10;;;7.20;99.90;;;;;;5016259;28;20060;-81
2023/10/16 02:21:12;;;;;;;0.10;0.10;;;7.10;99.90;;;;;;5013384;28;20030;-78
2023/10/16 02:23:38;;;;;;;0.10;0.10;;;7.10;99.90;;;;;;5016154;28;20375;-79
2023/10/16 02:26:06;;;;;;;0.10;0.10;;;7.20;99.90;;;;;;5014625;28;20025;-81
2023/10/16 02:28:33;;;;;;;0.20;0.20;;;7.20;99.90;;;;;;5031353;28;20022;-82
2023/10/16 02:31:17;;;;;;;0.20;0.20;;;7.10;99.90;;;;;;5015848;28;20390;-80
2023/10/16 02:33:47;;;;;;;1.33;1.23;;;6.90;99.90;;;;;;5014968;28;20026;-78
2023/10/16 02:36:14;;;;;;;0.90;0.90;;;6.40;99.90;;;;;;5015560;28;20030;-77
2023/10/16 02:38:41;;;;;;;0.30;0.30;;;6.30;99.90;;;;;;5014529;28;20025;-80
2023/10/16 02:41:09;;;;;;;0.10;0.10;;;6.50;99.90;;;;;;5015556;28;20116;-78
2023/10/16 02:43:41;;;;;;;0.20;0.20;;;6.70;99.90;;;;;;5014556;28;20109;-78
2023/10/16 02:46:10;;;;;;;0.10;0.10;;;6.50;99.90;;;;;;5014403;28;20026;-80
2023/10/16 02:48:38;;;;;;;0.20;0.20;;;6.70;99.90;;;;;;5015764;28;20030;-81
2023/10/16 02:51:06;;;;;;;0.28;0.28;;;7.00;99.90;;;;;;5015355;28;20426;-78
2023/10/16 02:53:36;;;;;;;0.15;0.15;;;7.10;99.90;;;;;;5015689;28;20026;-80
2023/10/16 02:56:08;;;;;;;0.77;0.77;;;7.10;99.90;;;;;;5014186;28;20041;-78
2023/10/16 02:58:37;;;;;;;0.20;0.20;;;7.20;99.90;;;;;;5015706;28;20048;-78
2023/10/16 03:01:12;;;;;;;0.10;0.10;;;7.00;99.90;;;;;;5015384;28;20065;-77
2023/10/16 03:03:42;;;;;;;0.10;0.10;;;7.10;99.90;;;;;;5030457;28;20026;-78
2023/10/16 03:06:09;;;;;;;0.10;0.10;;;7.30;99.90;;;;;;5015032;28;20030;-77
2023/10/16 03:08:37;;;;;;;0.10;0.10;;;7.40;99.90;;;;;;5013967;28;20036;-77
2023/10/16 03:11:06;;;;;;;0.10;0.10;;;7.50;99.90;;;;;;5013886;28;20117;-78
2023/10/16 03:13:35;;;;;;;0.10;0.10;;;7.60;99.90;;;;;;5013555;28;20029;-78
2023/10/16 03:16:15;;;;;;;0.10;0.10;;;7.60;99.90;;;;;;5012965;28;20026;-77
2023/10/16 03:18:47;;;;;;;0.03;0.03;;;7.60;99.90;;;;;;5015215;28;20033;-78
2023/10/16 03:23:45;;;;;;;0.10;0.10;;;7.50;99.90;;;;;;5015089;28;20506;-79
2023/10/16 03:28:46;;;;;;;0.20;0.20;;;7.20;99.90;;;;;;5030079;28;20397;-77
2023/10/16 03:31:12;;;;;;;0.10;0.10;;;7.20;99.90;;;;;;5014838;28;20022;-79
2023/10/16 03:33:38;;;;;;;0.10;0.10;;;7.20;99.90;;;;;;5014534;28;20060;-78
2023/10/16 03:36:04;;;;;;;0.10;0.10;;;7.20;99.90;;;;;;5030103;28;20050;-78
2023/10/16 03:38:37;;;;;;;0.20;0.20;;;7.10;99.90;;;;;;5013442;28;20034;-77
2023/10/16 03:44:07;;;;;;;0.10;0.10;;;7.00;99.90;;;;;;5005682;28;20030;-77
2023/10/16 03:46:33;;;;;;;0.10;0.10;;;7.00;99.90;;;;;;5014732;28;20383;-78
2023/10/16 03:49:00;;;;;;;0.10;0.10;;;7.00;99.90;;;;;;5014252;28;20497;-78
2023/10/16 03:51:26;;;;;;;0.10;0.10;;;7.10;99.90;;;;;;5014590;28;20056;-78
2023/10/16 03:53:56;;;;;;;0.10;0.10;;;7.20;99.90;;;;;;5014549;28;20029;-77
2023/10/16 03:56:24;;;;;;;0.30;0.30;;;7.20;99.90;;;;;;5014555;28;20021;-77
2023/10/16 03:58:53;;;;;;;0.10;0.10;;;7.30;99.90;;;;;;5014350;28;20363;-77
2023/10/16 04:01:28;;;;;;;0.20;0.20;;;7.20;99.90;;;;;;5014226;28;20037;-77
2023/10/16 04:03:57;;;;;;;0.00;0.00;;;7.00;99.90;;;;;;5013846;28;20022;-77
2023/10/16 04:06:25;;;;;;;0.10;0.10;;;7.30;99.90;;;;;;5014303;28;20108;-78
2023/10/16 04:08:53;;;;;;;0.20;0.20;;;7.20;99.90;;;;;;5014114;28;20482;-78
2023/10/16 04:11:21;;;;;;;0.10;0.10;;;7.30;99.90;;;;;;5014058;28;20045;-77
2023/10/16 04:13:52;;;;;;;0.28;0.28;;;7.00;99.90;;;;;;5014176;28;20030;-77
2023/10/16 04:21:45;;;;;;;0.35;0.35;;;6.90;99.90;;;;;;5013684;28;20022;-80
2023/10/16 04:34:54;;;;;;;0.10;0.10;;;7.10;99.90;;;;;;5013750;28;19909;-80
2023/10/16 04:37:35;;;;;;;0.10;0.10;;;7.20;99.90;;;;;;5029069;28;20116;-78
2023/10/16 04:50:30;;;;;;;;;;;7.30;99.90;;;;;;5014101;28;20386;-78
2023/10/16 05:22:09;;;;;;;0.10;0.10;;;7.00;99.90;;;;;;5012776;28;20022;-78
2023/10/16 06:14:12;;;;;;;0.10;0.10;;;6.60;99.90;;;;;;5009159;28;20478;-78
2023/10/16 06:16:42;;;;;;;0.10;0.10;;;6.60;99.90;;;;;;5011574;28;20045;-78
2023/10/16 06:19:14;;;;;;;0.10;0.10;;;6.70;99.90;;;;;;5010489;28;20036;-78
2023/10/16 06:21:48;;;;;;;0.30;0.30;;;6.60;99.90;;;;;;5011572;28;20037;-78
2023/10/16 06:24:32;;;;;;;0.88;0.88;;;6.60;99.90;;;;;;5011680;28;20057;-79
2023/10/16 06:27:00;;;;;;;0.30;0.30;;;6.70;99.90;;;;;;5011737;28;20187;-78
2023/10/16 06:29:35;;;;;;;0.10;0.10;;;6.70;99.90;;;;;;5010742;28;20033;-78
2023/10/16 06:32:07;;;;;;;0.10;0.10;;;6.80;99.90;;;;;;5026793;28;20041;-78
2023/10/16 06:34:34;;;;;;;0.10;0.10;;;6.80;99.90;;;;;;5016467;28;20025;-78
2023/10/16 06:37:06;;;;;;;0.10;0.10;;;6.70;99.90;;;;;;5011786;28;20558;-78
2023/10/16 06:39:35;;;;;;;0.10;0.10;;;6.70;99.90;;;;;;5010215;28;20498;-79
2023/10/16 06:42:04;;;;;;;0.10;0.10;;;6.70;99.90;;;;;;5011523;28;20110;-78
2023/10/16 06:44:36;;;;;;;0.10;0.10;;;6.90;99.90;;;;;;5010950;28;20026;-78
2023/10/16 06:47:02;;;;;;;0.00;0.00;;;6.90;99.90;;;;;;5011411;28;20458;-78
2023/10/16 06:49:35;;;;;;;0.10;0.10;;;6.90;99.90;;;;;;5012852;28;20018;-80
2023/10/16 06:52:04;;;;;;;0.25;0.25;;;7.10;99.90;;;;;;5014799;28;20018;-79
2023/10/16 06:54:37;;;;;;;2.20;1.80;;;7.30;99.90;;;;;;5014379;28;20026;-78
2023/10/16 06:57:12;;;;;;;0.10;0.10;;;7.20;99.90;;;;;;5014766;28;20084;-77
2023/10/16 06:59:46;;;;;;;0.10;0.10;;;7.20;99.90;;;;;;5014481;28;20038;-78
2023/10/16 07:02:21;;;;;;;0.10;0.10;;;7.40;99.90;;;;;;5030078;28;20064;-79
2023/10/16 07:04:47;;;;;;;0.10;0.10;;;7.30;99.90;;;;;;5013204;28;20025;-80
2023/10/16 07:07:17;;;;;;;0.10;0.10;;;7.40;99.90;;;;;;5014908;28;20857;-79
2023/10/16 07:09:47;;;;;;;0.10;0.10;;;7.50;99.90;;;;;;5014488;28;20528;-79
2023/10/16 07:12:16;;;;;;;0.10;0.10;;;7.70;99.90;;;;;;5014336;28;20383;-78
2023/10/16 07:14:55;;;;;;;0.10;0.10;;;7.90;99.90;;;;;;5014222;28;20057;-78
2023/10/16 07:17:29;;;;;;;0.40;0.40;;;8.00;99.90;;;;;;5014553;28;20060;-78
2023/10/16 07:19:58;;;;;;;0.10;0.10;;;8.10;99.90;;;;;;5011462;28;20562;-78
2023/10/16 07:22:31;;;;;;;0.10;0.10;;;8.20;99.90;;;;;;5014343;28;20034;-78
2023/10/16 07:27:58;;;;;;;0.10;0.10;;;8.40;99.90;;;;;;4991307;28;20538;-80
2023/10/16 07:30:25;;;;;;;0.10;0.10;;;8.30;99.90;;;;;;5014272;28;20036;-79
2023/10/16 07:32:52;;;;;;;0.10;0.10;;;8.50;99.90;;;;;;5012913;28;20453;-78
2023/10/16 07:35:18;;;;;;;0.10;0.10;;;8.60;99.90;;;;;;5014226;28;20026;-80
2023/10/16 07:37:49;;;;;;;0.10;0.10;;;8.80;99.90;;;;;;5013939;28;20104;-78
2023/10/16 07:40:15;;;;;;;0.10;0.10;;;8.90;99.90;;;;;;5012148;28;20423;-79
2023/10/16 07:42:41;;;;;;;0.00;0.00;;;8.90;99.90;;;;;;5013245;28;20029;-77
2023/10/16 07:45:08;;;;;;;0.08;0.08;;;9.00;99.90;;;;;;5013898;28;20421;-78
2023/10/16 07:47:34;;;;;;;0.10;0.10;;;9.30;99.90;;;;;;5013500;28;20017;-79
2023/10/16 07:50:04;;;;;;;0.20;0.20;;;9.40;99.90;;;;;;5013719;28;20475;-79
2023/10/16 07:52:33;;;;;;;0.15;0.15;;;9.40;99.90;;;;;;5013187;28;20030;-77
2023/10/16 07:54:59;;;;;;;0.10;0.10;;;9.80;99.90;;;;;;5013147;28;20402;-78
2023/10/16 07:57:25;;;;;;;0.32;0.32;;;10.00;99.90;;;;;;5028580;28;20029;-77
2023/10/16 07:59:54;;;;;;;0.10;0.10;;;9.90;99.90;;;;;;5012945;28;20401;-78
2023/10/16 08:02:21;;;;;;;0.65;0.35;;;9.90;99.90;;;;;;5013087;28;20014;-81
2023/10/16 08:04:52;;;;;;;0.00;0.00;;;10.00;99.90;;;;;;5010659;28;20100;-78
2023/10/16 08:07:18;;;;;;;0.35;0.35;;;9.70;99.90;;;;;;5013386;28;20037;-77
2023/10/16 08:09:54;;;;;;;0.70;0.70;;;9.30;99.90;;;;;;5012947;28;20033;-80
2023/10/16 08:12:35;;;;;;;0.10;0.10;;;9.20;99.90;;;;;;5013239;28;20113;-80
2023/10/16 08:15:14;;;;;;;0.10;0.10;;;9.70;99.90;;;;;;5013013;28;20022;-78
2023/10/16 08:17:43;;;;;;;0.10;0.10;;;9.60;99.90;;;;;;5013098;28;20034;-78
2023/10/16 08:20:17;;;;;;;0.30;0.30;;;9.60;99.90;;;;;;5013184;28;20014;-77
2023/10/16 08:22:46;;;;;;;0.52;0.52;;;10.00;99.90;;;;;;5013005;28;20504;-80
2023/10/16 08:25:30;;;;;;;0.10;0.10;;;9.80;99.90;;;;;;5013161;28;20018;-79
2023/10/16 08:27:58;;;;;;;0.28;0.28;;;9.70;99.90;;;;;;5005241;28;20037;-78
2023/10/16 08:30:33;;;;;;;0.10;0.10;;;9.90;99.90;;;;;;5013087;28;20466;-78
2023/10/16 08:33:08;;;;;;;0.52;0.52;;;10.10;99.90;;;;;;5013230;28;20405;-77
2023/10/16 08:35:41;;;;;;;0.30;0.30;;;10.20;99.90;;;;;;5010706;28;20435;-77
2023/10/16 08:38:17;;;;;;;0.50;0.30;;;10.40;99.90;;;;;;5011869;28;20355;-79
2023/10/16 08:40:46;;;;;;;0.00;0.00;;;10.70;99.90;;;;;;5012932;28;20486;-77
2023/10/16 08:43:19;;;;;;;0.70;0.22;;;10.60;99.90;;;;;;5012838;28;20026;-77
2023/10/16 08:45:48;;;;;;;0.10;0.10;;;10.80;99.90;;;;;;5012354;28;20056;-77
2023/10/16 08:48:18;;;;;;;0.10;0.10;;;10.80;99.90;;;;;;5012513;28;20097;-77
2023/10/16 08:50:57;;;;;;;0.10;0.10;;;10.90;99.90;;;;;;5006482;28;20034;-76
2023/10/16 08:53:32;;;;;;;0.10;0.10;;;11.30;99.90;;;;;;5012437;28;20045;-76
2023/10/16 08:56:07;;;;;;;10.23;7.63;;;11.60;99.90;;;;;;5007763;28;20108;-77
2023/10/16 08:58:38;;;;;;;0.10;0.10;;;11.70;99.90;;;;;;5010592;28;20617;-77
2023/10/16 09:01:08;;;;;;;0.10;0.10;;;11.70;99.90;;;;;;5012459;28;20133;-76
2023/10/16 09:04:01;;;;;;;0.03;0.03;;;11.60;99.90;;;;;;5012258;28;20434;-76
2023/10/16 09:06:29;;;;;;;0.10;0.10;;;11.70;99.90;;;;;;5012339;28;20029;-76
2023/10/16 09:08:55;;;;;;;0.65;0.65;;;12.00;99.90;;;;;;5011626;28;20040;-76
2023/10/16 09:11:22;;;;;;;0.08;0.08;;;12.30;99.90;;;;;;5012043;28;20025;-76
2023/10/16 09:13:52;;;;;;;1.90;1.40;;;12.80;99.90;;;;;;4998054;28;20034;-76
2023/10/16 09:16:30;;;;;;;2.33;0.93;;;12.90;99.90;;;;;;5011673;28;20032;-76
2023/10/16 09:18:58;;;;;;;0.10;0.10;;;12.50;99.90;;;;;;5007087;28;20030;-76
2023/10/16 09:21:28;;;;;;;0.00;0.00;;;12.70;99.90;;;;;;5011567;28;20124;-77
2023/10/16 09:24:00;;;;;;;0.10;0.10;;;13.10;99.90;;;;;;5012154;28;20057;-75
2023/10/16 09:26:32;;;;;;;0.10;0.10;;;13.00;99.90;;;;;;5012141;28;20506;-77
2023/10/16 09:29:04;;;;;;;0.00;0.00;;;13.00;99.90;;;;;;5012402;28;20053;-77
2023/10/16 09:31:31;;;;;;;0.10;0.10;;;13.40;99.90;;;;;;5012325;28;20029;-77
2023/10/16 09:33:57;;;;;;;0.00;0.00;;;13.30;99.90;;;;;;5012256;28;20030;-76
2023/10/16 09:36:23;;;;;;;0.00;0.00;;;13.20;99.90;;;;;;5011691;28;20028;-75
2023/10/16 09:38:52;;;;;;;0.10;0.10;;;13.50;99.90;;;;;;5011994;28;20026;-75
2023/10/16 09:44:22;;;;;;;0.10;0.10;;;14.10;99.90;;;;;;5005110;28;20026;-77
2023/10/16 09:49:23;;;;;;;0.00;0.00;;;14.00;99.90;;;;;;5011980;28;20030;-76
2023/10/16 09:52:03;;;;;;;0.10;0.10;;;14.00;99.90;;;;;;5010932;28;20489;-76
2023/10/16 09:54:30;;;;;;;0.00;0.00;;;13.90;99.90;;;;;;5008974;28;20448;-78
2023/10/16 09:56:59;;;;;;;0.00;0.00;;;14.10;99.90;;;;;;5011533;28;20030;-77
2023/10/16 09:59:38;;;;;;;0.00;0.00;;;14.30;99.90;;;;;;5012141;28;20136;-77
2023/10/16 10:02:08;;;;;;;0.00;0.00;;;14.00;99.90;;;;;;5012168;28;20049;-79
2023/10/16 10:04:35;;;;;;;0.00;0.00;;;14.20;99.90;;;;;;5011595;28;20033;-76
2023/10/16 10:07:19;;;;;;;0.10;0.10;;;14.40;99.90;;;;;;5011610;28;20026;-77
2023/10/16 10:09:48;;;;;;;0.20;0.20;;;14.40;99.90;;;;;;5011928;28;20033;-76
2023/10/16 10:12:42;;;;;;;1.02;0.88;;;14.50;99.90;;;;;;5002461;28;20394;-76
2023/10/16 10:15:14;;;;;;;0.03;0.03;;;13.70;99.90;;;;;;5011726;28;20116;-76
2023/10/16 10:17:42;;;;;;;0.00;0.00;;;13.80;99.90;;;;;;5011688;28;20401;-78
2023/10/16 10:20:09;;;;;;;0.00;0.00;;;14.00;99.90;;;;;;5011182;28;20034;-77
2023/10/16 10:22:36;;;;;;;2.35;2.15;;;14.20;99.90;;;;;;5011479;28;20045;-77
2023/10/16 10:25:22;;;;;;;0.00;0.00;;;14.70;99.90;;;;;;5014719;28;20061;-76
2023/10/16 10:27:49;;;;;;;0.10;0.10;;;14.50;99.90;;;;;;5014671;28;20053;-78
2023/10/16 10:30:17;;;;;;;0.00;0.00;;;14.60;99.90;;;;;;5015544;28;20038;-76
2023/10/16 10:32:53;;;;;;;0.00;0.00;;;14.40;99.90;;;;;;5000108;28;20065;-75
2023/10/16 10:35:28;;;;;;;0.00;0.00;;;14.40;99.90;;;;;;5014814;28;20080;-75
2023/10/16 10:38:24;;;;;;;4.97;2.05;;;14.30;99.90;;;;;;5015715;28;20021;-76
2023/10/16 10:41:11;;;;;;;0.15;0.15;;;14.20;99.90;;;;;;5015392;28;20132;-74
2023/10/16 10:43:46;;;;;;;0.00;0.00;;;14.60;99.90;;;;;;5015741;28;20040;-76
2023/10/16 10:46:24;;;;;;;0.00;0.00;;;15.00;99.90;;;;;;5015576;28;20022;-75
2023/10/16 10:48:54;;;;;;;0.00;0.00;;;15.30;99.90;;;;;;5015389;28;20501;-75
2023/10/16 10:51:20;;;;;;;0.00;0.00;;;15.40;99.90;;;;;;5015447;28;20126;-75
2023/10/16 10:53:56;;;;;;;0.00;0.00;;;16.10;99.90;;;;;;5015593;28;20040;-75
2023/10/16 10:56:23;;;;;;;0.15;0.15;;;16.00;99.90;;;;;;5015073;28;20104;-75
2023/10/16 10:58:49;;;;;;;0.57;0.57;;;15.60;99.90;;;;;;5015569;28;20033;-75
2023/10/16 11:01:35;;;;;;;0.00;0.00;;;15.50;99.90;;;;;;5015240;28;20041;-75
2023/10/16 11:04:01;;;;;;;0.00;0.00;;;15.90;99.90;;;;;;5014145;28;20168;-75
2023/10/16 11:07:11;;;;;;;0.00;0.00;;;16.70;99.90;;;;;;5013623;28;20046;-75
2023/10/16 11:09:26;;;;;;;0.10;0.10;;;16.40;99.90;;;;;;5012736;28;20069;-74
2023/10/16 11:11:52;;;;;;;0.00;0.00;;;16.90;99.90;;;;;;5015070;28;20036;-75
2023/10/16 11:14:34;;;;;;;0.10;0.10;;;16.80;99.90;;;;;;5015425;28;20716;-75
2023/10/16 11:17:00;;;;;;;0.00;0.00;;;16.90;99.90;;;;;;5015336;28;20022;-76
2023/10/16 11:19:29;;;;;;;0.00;0.00;;;17.00;99.90;;;;;;5014989;28;20486;-76
2023/10/16 11:22:00;;;;;;;0.00;0.00;;;17.30;99.90;;;;;;5013413;28;20419;-76
2023/10/16 11:24:26;;;;;;;0.00;0.00;;;17.40;99.90;;;;;;5015341;28;20021;-75
2023/10/16 11:26:54;;;;;;;0.00;0.00;;;17.10;99.90;;;;;;5014836;28;20033;-75
2023/10/16 11:29:20;;;;;;;0.95;0.75;;;17.30;99.90;;;;;;5014960;28;20064;-75
2023/10/16 11:31:46;;;;;;;12.68;1.27;;;17.00;99.90;;;;;;5013496;28;20042;-75
2023/10/16 11:34:21;;;;;;;2.13;0.57;;;16.60;99.90;;;;;;5013467;28;20383;-75
2023/10/16 11:36:50;;;;;;;0.13;0.08;;;16.20;99.90;;;;;;5013991;28;20038;-75
2023/10/16 11:39:19;;;;;;;0.45;0.40;;;16.90;99.90;;;;;;5014692;28;20414;-75
2023/10/16 11:41:46;;;;;;;0.00;0.00;;;16.80;99.90;;;;;;5014810;28;20405;-75
2023/10/16 11:44:16;;;;;;;0.00;0.00;;;17.40;99.90;;;;;;5013443;28;20080;-75
2023/10/16 11:46:44;;;;;;;0.00;0.00;;;18.30;99.90;;;;;;5014653;28;20463;-76
2023/10/16 11:49:22;;;;;;;0.00;0.00;;;18.30;99.90;;;;;;5014505;28;20121;-75
2023/10/16 11:51:53;;;;;;;0.00;0.00;;;18.50;99.50;;;;;;5014664;28;20030;-75
2023/10/16 11:54:23;;;;;;;0.00;0.00;;;17.90;99.60;;;;;;5014456;28;20030;-75
2023/10/16 11:56:59;;;;;;;0.00;0.00;;;18.10;99.90;;;;;;5014708;28;20034;-75
2023/10/16 11:59:26;;;;;;;10.23;9.25;;;18.40;98.30;;;;;;5014237;28;20026;-75
2023/10/16 12:01:52;;;;;;;0.00;0.00;;;18.90;98.00;;;;;;5014212;28;20026;-76
2023/10/16 12:04:19;;;;;;;0.00;0.00;;;18.70;98.20;;;;;;5014426;28;20072;-75
2023/10/16 12:06:48;;;;;;;0.00;0.00;;;18.50;99.00;;;;;;5014293;28;20087;-77
2023/10/16 12:09:20;;;;;;;0.00;0.00;;;18.90;98.30;;;;;;5014430;28;20026;-76
2023/10/16 12:11:50;;;;;;;0.00;0.00;;;19.00;97.30;;;;;;5014086;28;20038;-77
2023/10/16 12:14:18;;;;;;;0.00;0.00;;;18.80;97.20;;;;;;5013145;28;20505;-76
2023/10/16 12:16:45;;;;;;;0.30;0.30;;;18.70;97.10;;;;;;5013762;28;20026;-76
2023/10/16 12:19:18;;;;;;;0.00;0.00;;;19.20;97.50;;;;;;5014141;28;20489;-76
2023/10/16 12:21:47;;;;;;;0.00;0.00;;;19.50;97.50;;;;;;5013896;28;20065;-76
2023/10/16 12:24:15;;;;;;;0.10;0.10;;;19.50;95.00;;;;;;5014262;28;20085;-76
2023/10/16 12:26:42;;;;;;;1.35;0.30;;;19.20;96.30;;;;;;5014077;28;20033;-77
2023/10/16 12:29:08;;;;;;;0.00;0.00;;;19.20;96.30;;;;;;5013632;28;20026;-76
2023/10/16 12:31:39;;;;;;;0.00;0.00;;;19.50;95.30;;;;;;5013722;28;20115;-76
2023/10/16 12:34:07;;;;;;;0.00;0.00;;;19.80;95.50;;;;;;5013670;28;20045;-77
2023/10/16 12:36:33;;;;;;;0.20;0.20;;;20.10;94.20;;;;;;5013836;28;20030;-76
2023/10/16 12:38:59;;;;;;;0.00;0.00;;;19.50;95.10;;;;;;5013640;28;20042;-77
2023/10/16 12:41:25;;;;;;;5.40;5.03;;;19.40;95.20;;;;;;5012388;28;20049;-79
2023/10/16 12:43:50;;;;;;;0.00;0.00;;;19.30;95.70;;;;;;5013448;28;20060;-76
2023/10/16 12:46:17;;;;;;;0.03;0.03;;;19.30;96.30;;;;;;5013124;28;20465;-76
2023/10/16 12:48:44;;;;;;;0.00;0.00;;;19.30;96.80;;;;;;5013137;28;20110;-76
2023/10/16 12:51:10;;;;;;;0.03;0.03;;;19.50;95.60;;;;;;5013472;28;20037;-76
2023/10/16 12:53:38;;;;;;;0.80;0.47;;;19.70;95.30;;;;;;5013421;28;20034;-76
2023/10/16 12:56:05;;;;;;;0.00;0.00;;;19.10;95.50;;;;;;5013449;28;20041;-77
2023/10/16 12:58:34;;;;;;;0.10;0.10;;;19.10;95.90;;;;;;5013560;28;20041;-76
2023/10/16 13:01:10;;;;;;;0.00;0.00;;;19.80;96.00;;;;;;5012983;28;20042;-77
2023/10/16 13:03:36;;;;;;;0.00;0.00;;;19.70;94.10;;;;;;5013394;28;20549;-76
2023/10/16 13:06:08;;;;;;;0.00;0.00;;;19.60;95.50;;;;;;5013361;28;20475;-77
2023/10/16 13:08:34;;;;;;;0.00;0.00;;;19.70;94.30;;;;;;5000066;28;20084;-77
2023/10/16 13:11:00;;;;;;;0.00;0.00;;;19.60;95.90;;;;;;5013163;28;20550;-77
2023/10/16 13:13:25;;;;;;;0.20;0.20;;;19.40;95.20;;;;;;5013016;28;20094;-76
2023/10/16 13:15:51;;;;;;;0.00;0.00;;;19.60;96.10;;;;;;5013314;28;20394;-75
2023/10/16 13:18:26;;;;;;;0.00;0.00;;;20.00;94.70;;;;;;5013625;28;20026;-75
2023/10/16 13:21:15;;;;;;;0.00;0.00;;;20.40;94.10;;;;;;5013109;28;20045;-75
2023/10/16 13:23:41;;;;;;;0.00;0.00;;;20.40;94.70;;;;;;5011808;28;20022;-75
2023/10/16 13:26:10;;;;;;;0.00;0.00;;;19.90;94.50;;;;;;5013183;28;20497;-75
2023/10/16 13:28:37;;;;;;;0.00;0.00;;;19.70;95.00;;;;;;5012864;28;20041;-76
2023/10/16 13:31:04;;;;;;;0.08;0.08;;;20.70;94.70;;;;;;5012786;28;20034;-76
2023/10/16 13:33:33;;;;;;;0.00;0.00;;;20.20;93.20;;;;;;5011941;28;20064;-75
2023/10/16 13:36:00;;;;;;;0.00;0.00;;;20.50;93.90;;;;;;5012881;28;20026;-75
2023/10/16 13:38:26;;;;;;;0.00;0.00;;;20.70;94.10;;;;;;5012993;28;20437;-75
2023/10/16 13:40:53;;;;;;;0.00;0.00;;;21.50;92.70;;;;;;5012600;28;20081;-75
2023/10/16 13:43:20;;;;;;;0.20;0.20;;;22.30;92.00;;;;;;5012751;28;20124;-75
2023/10/16 13:45:46;;;;;;;0.00;0.00;;;21.90;91.10;;;;;;5012848;28;20483;-75
2023/10/16 13:48:12;;;;;;;0.00;0.00;;;21.90;92.20;;;;;;5012815;28;20068;-75
2023/10/16 13:50:40;;;;;;;0.30;0.30;;;21.60;91.30;;;;;;5012591;28;20045;-74
2023/10/16 13:53:08;;;;;;;0.00;0.00;;;20.70;91.80;;;;;;5012385;28;20022;-75
2023/10/16 13:55:34;;;;;;;1.30;0.32;;;20.80;92.80;;;;;;5011219;28;20065;-75
2023/10/16 13:58:00;;;;;;;0.10;0.10;;;20.40;92.30;;;;;;5012323;28;20030;-76
2023/10/16 14:00:29;;;;;;;0.00;0.00;;;20.70;93.30;;;;;;5016620;28;20050;-75
2023/10/16 14:03:05;;;;;;;0.00;0.00;;;20.70;93.10;;;;;;5016364;28;20018;-76
2023/10/16 14:05:35;;;;;;;0.00;0.00;;;20.70;92.30;;;;;;5016519;28;20026;-75
2023/10/16 14:08:03;;;;;;;0.00;0.00;;;21.40;92.10;;;;;;5016753;28;20029;-75
2023/10/16 14:10:29;;;;;;;0.10;0.10;;;21.50;91.20;;;;;;5016721;28;20065;-76
2023/10/16 14:13:10;;;;;;;0.00;0.00;;;21.30;91.90;;;;;;5031391;28;20081;-77
2023/10/16 14:15:41;;;;;;;;;;;20.70;92.70;;;;;;5016652;28;20042;-75
2023/10/16 14:18:14;;;;;;;0.00;0.00;;;20.90;92.40;;;;;;5016433;28;20397;-78
2023/10/16 14:20:45;;;;;;;0.03;0.03;;;20.40;92.90;;;;;;5016208;28;20038;-78
2023/10/16 14:23:15;;;;;;;0.30;0.17;;;20.30;93.30;;;;;;5016089;28;20042;-74
2023/10/16 14:25:47;;;;;;;0.75;0.25;;;20.20;93.00;;;;;;5015896;28;20050;-77
2023/10/16 14:28:33;;;;;;;0.00;0.00;;;19.50;94.60;;;;;;5015993;28;20029;-80
2023/10/16 14:31:05;;;;;;;0.00;0.00;;;19.00;95.10;;;;;;5012064;28;20022;-80
2023/10/16 14:33:32;;;;;;;;;;;18.50;96.00;;;;;;5015004;28;20393;-79
2023/10/16 14:35:59;;;;;;;0.70;0.20;;;18.80;95.90;;;;;;5015339;28;19912;-80
2023/10/16 14:38:26;;;;;;;0.00;0.00;;;18.90;96.20;;;;;;5014891;28;20378;-80
2023/10/16 14:40:55;;;;;;;0.00;0.00;;;18.50;96.30;;;;;;5014813;28;20033;-80
2023/10/16 14:43:24;;;;;;;0.03;0.03;;;18.30;97.00;;;;;;5013713;28;20028;-80
2023/10/16 14:45:53;;;;;;;0.03;0.03;;;18.00;98.20;;;;;;5014937;28;20426;-80
2023/10/16 14:48:23;;;;;;;0.03;0.03;;;17.80;98.00;;;;;;5014056;28;20026;-80
2023/10/16 14:50:50;;;;;;;0.00;0.00;;;17.70;98.30;;;;;;5015042;28;20022;-80
2023/10/16 14:53:19;;;;;;;0.00;0.00;;;17.60;98.60;;;;;;5015062;28;20045;-80
2023/10/16 14:55:49;;;;;;;0.00;0.00;;;17.70;99.30;;;;;;5010834;28;20104;-80
2023/10/16 14:58:16;;;;;;;0.03;0.03;;;17.50;99.30;;;;;;5014855;28;20022;-80
2023/10/16 15:00:44;;;;;;;0.00;0.00;;;18.00;99.10;;;;;;5014556;28;20038;-80
2023/10/16 15:03:11;;;;;;;0.00;0.00;;;18.50;98.00;;;;;;5014588;28;20063;-80
2023/10/16 15:05:41;;;;;;;0.45;0.45;;;18.50;98.00;;;;;;5014775;28;20474;-80
2023/10/16 15:08:11;;;;;;;0.00;0.00;;;18.60;97.20;;;;;;5014771;28;20053;-81
2023/10/16 15:10:40;;;;;;;0.00;0.00;;;18.20;97.50;;;;;;5013710;28;20052;-81